This is the latest recevied weather packets stored in our database for station/object NY3Q. If no packets are shown the sender has not sent any weather packets the latest 10 day(s).
| Time | Temp. | Humidity | Pressure | Rain* | Wind** | Luminosity | Snow |
|---|---|---|---|---|---|---|---|
| 1778017170 | 26.11° C | 52% | 1015.8 hPa | 0 mm | - | 313 W/m² | - |
| 1778016868 | 26.11° C | 50% | 1015.7 hPa | 0 mm | - | 325 W/m² | - |
| 1778016563 | 26.67° C | 50% | 1015.7 hPa | 0 mm | - | 338 W/m² | - |
| 1778016261 | 26.67° C | 49% | 1015.8 hPa | 0 mm | - | 348 W/m² | - |
| 1778015957 | 26.67° C | 48% | 1015.7 hPa | 0 mm | - | 361 W/m² | - |
| 1778015655 | 26.11° C | 49% | 1015.8 hPa | 0 mm | - | 376 W/m² | - |
| 1778015350 | 26.11° C | 50% | 1015.7 hPa | 0 mm | - | 392 W/m² | - |
| 1778015048 | 27.22° C | 48% | 1015.7 hPa | 0 mm | - | 403 W/m² | - |
| 1778014745 | 26.67° C | 47% | 1015.7 hPa | 0 mm | - | 416 W/m² | - |
| 1778014443 | 27.22° C | 47% | 1015.8 hPa | 0 mm | - | 432 W/m² | - |
| 1778014139 | 26.67° C | 52% | 1016.2 hPa | 0 mm | - | 422 W/m² | - |
| 1778013837 | 26.67° C | 50% | 1016 hPa | 0 mm | - | 447 W/m² | - |
| 1778013534 | 27.22° C | 46% | 1016.1 hPa | 0 mm | - | 451 W/m² | - |
| 1778013231 | 26.67° C | 50% | 1016 hPa | 0 mm | - | 477 W/m² | - |
| 1778012927 | 26.67° C | 49% | 1016.2 hPa | 0 mm | - | 464 W/m² | - |
| 1778012623 | 27.22° C | 51% | 1016.2 hPa | 0 mm | - | 495 W/m² | - |
| 1778012320 | 27.78° C | 50% | 1016.5 hPa | 0 mm | - | 477 W/m² | - |
| 1778012018 | 27.22° C | 48% | 1016.4 hPa | 0 mm | - | 492 W/m² | - |
| 1778011716 | 27.22° C | 50% | 1016.4 hPa | 0 mm | - | 481 W/m² | - |
| 1778011412 | 27.22° C | 49% | 1016.3 hPa | 0 mm | - | 499 W/m² | - |
| 1778011108 | 26.67° C | 48% | 1016.5 hPa | 0 mm | - | 497 W/m² | - |
| 1778010805 | 26.67° C | 48% | 1016.4 hPa | 0 mm | - | 531 W/m² | - |
| 1778010502 | 27.22° C | 46% | 1016.6 hPa | 0 mm | - | 534 W/m² | - |
| 1778010200 | 27.78° C | 47% | 1016.6 hPa | 0 mm | - | 524 W/m² | - |
| 1778009894 | 27.78° C | 46% | 1016.5 hPa | 0 mm | - | 531 W/m² | - |
* Rain latest hour (hover to see other rain measurements)
** Current wind speed in m/s (hover to see current wind gust speed)